Time;durP1;ratioP1;P1;durP2;ratioP2;P2;SDS_P1;SDS_P2;PMS_P1;PMS_P2;Temp;Humidity;BMP_temperature;BMP_pressure;BME280_temperature;BME280_humidity;BME280_pressure;Samples;Min_cycle;Max_cycle;Signal;HPM_P1;HPM_P2
2023/04/18 00:01:15;;;;;;;16.95;13.55;;;9.30;99.90;;;;;;5141235;27;20229;-81
2023/04/18 00:03:44;;;;;;;14.35;12.00;;;9.30;99.90;;;;;;5137210;27;20282;-81
2023/04/18 00:06:12;;;;;;;15.88;14.15;;;9.30;99.90;;;;;;5129127;27;20223;-80
2023/04/18 00:08:40;;;;;;;17.02;13.80;;;9.30;99.90;;;;;;5131319;27;20225;-80
2023/04/18 00:11:07;;;;;;;15.50;13.90;;;9.30;99.90;;;;;;5131210;27;20647;-77
2023/04/18 00:13:34;;;;;;;17.70;14.75;;;9.20;99.90;;;;;;5130815;27;20306;-81
2023/04/18 00:16:01;;;;;;;14.20;12.30;;;9.20;99.90;;;;;;5120317;27;20234;-81
2023/04/18 00:18:28;;;;;;;15.43;13.85;;;9.20;99.90;;;;;;5123745;27;20246;-81
2023/04/18 00:20:55;;;;;;;15.15;13.02;;;9.20;99.90;;;;;;5127396;27;20308;-81
2023/04/18 00:23:27;;;;;;;15.55;12.63;;;9.20;99.90;;;;;;5130845;27;20279;-81
2023/04/18 00:25:54;;;;;;;15.30;13.57;;;9.20;99.90;;;;;;5127002;27;20223;-77
2023/04/18 00:28:21;;;;;;;14.63;12.57;;;9.20;99.90;;;;;;5124740;27;20226;-77
2023/04/18 00:30:48;;;;;;;14.38;12.88;;;9.20;99.90;;;;;;5125259;27;20233;-77
2023/04/18 00:33:15;;;;;;;14.85;13.35;;;9.20;99.90;;;;;;5131577;27;20245;-78
2023/04/18 00:35:42;;;;;;;14.60;13.10;;;9.20;99.90;;;;;;5124654;27;20233;-78
2023/04/18 00:38:11;;;;;;;14.60;12.75;;;9.20;99.90;;;;;;5122060;27;20221;-77
2023/04/18 00:40:40;;;;;;;14.88;12.85;;;9.10;99.90;;;;;;5126798;27;20226;-80
2023/04/18 00:43:08;;;;;;;14.75;11.98;;;9.10;99.90;;;;;;5132928;27;20218;-79
2023/04/18 00:45:36;;;;;;;16.77;13.25;;;9.10;99.90;;;;;;5128349;27;20257;-80
2023/04/18 00:48:04;;;;;;;16.15;13.48;;;9.10;99.90;;;;;;5117152;27;20218;-78
2023/04/18 00:50:31;;;;;;;16.55;13.43;;;9.10;99.90;;;;;;5121608;27;20226;-77
2023/04/18 00:53:00;;;;;;;17.98;14.38;;;9.10;99.90;;;;;;5118479;27;20741;-77
2023/04/18 00:55:27;;;;;;;16.77;12.85;;;9.00;99.90;;;;;;5117014;27;20233;-79
2023/04/18 00:57:55;;;;;;;17.55;13.60;;;9.00;99.90;;;;;;5122316;27;20215;-78
2023/04/18 01:00:23;;;;;;;18.00;14.00;;;9.00;99.90;;;;;;5129654;27;20232;-80
2023/04/18 01:02:51;;;;;;;17.40;12.70;;;9.00;99.90;;;;;;5130556;27;20222;-80
2023/04/18 01:05:20;;;;;;;19.27;13.30;;;9.00;99.90;;;;;;5122770;27;20321;-80
2023/04/18 01:07:47;;;;;;;16.73;15.02;;;8.90;99.90;;;;;;5114426;28;20279;-80
2023/04/18 01:10:14;;;;;;;17.13;13.90;;;8.90;99.90;;;;;;5114152;28;20242;-77
2023/04/18 01:12:42;;;;;;;14.45;12.63;;;8.90;99.90;;;;;;5112799;28;20357;-80
2023/04/18 01:15:11;;;;;;;13.63;11.93;;;8.90;99.90;;;;;;5114321;28;20251;-77
2023/04/18 01:17:38;;;;;;;16.60;12.20;;;8.90;99.90;;;;;;5112480;28;20237;-80
2023/04/18 01:20:06;;;;;;;16.58;14.02;;;8.90;99.90;;;;;;5115021;28;20238;-80
2023/04/18 01:22:33;;;;;;;13.35;11.95;;;8.90;99.90;;;;;;5114004;28;20230;-77
2023/04/18 01:25:08;;;;;;;14.40;12.85;;;8.90;99.90;;;;;;5114725;28;20239;-80
2023/04/18 01:27:35;;;;;;;16.25;14.07;;;8.90;99.90;;;;;;5114368;28;20689;-80
2023/04/18 01:30:02;;;;;;;14.95;12.85;;;8.90;99.90;;;;;;5114830;28;20302;-77
2023/04/18 01:32:29;;;;;;;13.63;12.05;;;8.90;99.90;;;;;;5113253;28;20226;-76
2023/04/18 01:34:57;;;;;;;14.10;12.70;;;8.90;99.90;;;;;;5114360;28;20229;-80
2023/04/18 01:37:24;;;;;;;15.35;13.20;;;8.90;99.90;;;;;;5113890;28;20279;-80
2023/04/18 01:39:51;;;;;;;16.92;13.25;;;8.90;99.90;;;;;;5114371;28;20302;-77
2023/04/18 01:42:19;;;;;;;16.60;14.35;;;8.90;99.90;;;;;;5113933;28;20246;-80
2023/04/18 01:44:46;;;;;;;15.73;12.85;;;8.90;99.90;;;;;;5113671;28;20254;-80
2023/04/18 01:47:13;;;;;;;14.57;12.95;;;8.90;99.90;;;;;;5114173;28;20222;-77
2023/04/18 01:49:45;;;;;;;14.07;12.57;;;8.90;99.90;;;;;;5113899;28;20219;-77
2023/04/18 01:52:13;;;;;;;16.08;13.00;;;8.90;99.90;;;;;;5114199;28;20242;-76
2023/04/18 01:54:40;;;;;;;14.52;13.02;;;8.90;99.90;;;;;;5113651;28;20226;-76
2023/04/18 01:57:07;;;;;;;17.60;13.00;;;8.80;99.90;;;;;;5114277;28;20219;-79
2023/04/18 01:59:35;;;;;;;15.73;12.40;;;8.80;99.90;;;;;;5113656;28;20728;-76
2023/04/18 02:02:02;;;;;;;15.45;12.15;;;8.80;99.90;;;;;;5114256;28;20211;-77
2023/04/18 02:04:29;;;;;;;13.38;10.88;;;8.80;99.90;;;;;;5112759;28;20573;-79
2023/04/18 02:06:56;;;;;;;13.65;11.80;;;8.90;99.90;;;;;;5114092;28;20219;-77
2023/04/18 02:09:24;;;;;;;14.48;12.85;;;8.90;99.90;;;;;;5114204;28;20222;-77
2023/04/18 02:11:51;;;;;;;14.63;12.82;;;8.90;99.90;;;;;;5113017;28;20656;-79
2023/04/18 02:14:19;;;;;;;17.02;12.93;;;8.90;99.90;;;;;;5115861;28;20252;-78
2023/04/18 02:16:47;;;;;;;12.43;11.05;;;8.90;99.90;;;;;;5113519;28;20233;-79
2023/04/18 02:19:16;;;;;;;13.25;11.85;;;8.90;99.90;;;;;;5114275;28;20704;-77
2023/04/18 02:21:43;;;;;;;13.40;11.73;;;8.80;99.90;;;;;;5113173;28;20622;-79
2023/04/18 02:24:10;;;;;;;14.07;12.68;;;8.80;99.90;;;;;;5114943;28;20334;-77
2023/04/18 02:26:38;;;;;;;15.10;11.95;;;8.80;99.90;;;;;;5113622;28;20230;-77
2023/04/18 02:29:05;;;;;;;13.23;11.73;;;8.80;99.90;;;;;;5114554;28;20598;-79
2023/04/18 02:31:32;;;;;;;14.55;11.50;;;8.80;99.90;;;;;;5116372;28;20305;-78
2023/04/18 02:34:00;;;;;;;12.93;11.57;;;8.90;99.90;;;;;;5121620;28;20214;-79
2023/04/18 02:36:27;;;;;;;15.25;13.20;;;8.90;99.90;;;;;;5114066;28;20223;-79
2023/04/18 02:38:55;;;;;;;14.52;12.80;;;8.90;99.90;;;;;;5113413;28;20304;-80
2023/04/18 02:41:22;;;;;;;12.82;11.40;;;8.90;99.90;;;;;;5113048;28;20234;-78
2023/04/18 02:43:49;;;;;;;12.77;11.40;;;8.80;99.90;;;;;;5112913;28;20228;-78
2023/04/18 02:46:16;;;;;;;15.35;12.82;;;8.90;99.90;;;;;;5113835;28;20882;-81
2023/04/18 02:48:43;;;;;;;15.48;13.05;;;8.90;99.90;;;;;;5117293;28;20225;-77
2023/04/18 02:51:11;;;;;;;12.77;10.95;;;8.80;99.90;;;;;;5117867;28;20282;-77
2023/04/18 02:53:38;;;;;;;13.60;12.18;;;8.90;99.90;;;;;;5117320;28;20261;-80
2023/04/18 02:56:06;;;;;;;15.27;11.95;;;8.90;99.90;;;;;;5117735;28;20665;-79
2023/04/18 02:58:35;;;;;;;13.63;12.23;;;8.90;99.90;;;;;;5117360;28;20346;-77
2023/04/18 03:01:02;;;;;;;13.98;11.10;;;8.90;99.90;;;;;;5117662;28;20683;-80
2023/04/18 03:03:29;;;;;;;15.02;13.13;;;8.90;99.90;;;;;;5117200;28;20305;-80
2023/04/18 03:05:56;;;;;;;15.07;12.25;;;8.90;99.90;;;;;;5117158;28;20294;-81
2023/04/18 03:08:25;;;;;;;14.80;12.65;;;8.90;99.90;;;;;;5117644;28;20679;-79
2023/04/18 03:10:52;;;;;;;14.20;11.70;;;9.00;99.90;;;;;;5116382;28;20222;-78
2023/04/18 03:13:19;;;;;;;13.30;11.98;;;8.90;99.90;;;;;;5116928;28;20306;-81
2023/04/18 03:15:48;;;;;;;13.10;11.70;;;9.00;99.90;;;;;;5117052;28;20234;-78
2023/04/18 03:18:15;;;;;;;13.95;11.00;;;8.90;99.90;;;;;;5117021;28;20404;-79
2023/04/18 03:20:42;;;;;;;13.48;11.18;;;9.00;99.90;;;;;;5115852;28;20309;-81
2023/04/18 03:23:12;;;;;;;14.30;12.57;;;8.90;99.90;;;;;;5117168;28;20229;-75
2023/04/18 03:25:40;;;;;;;19.15;11.48;;;9.00;99.90;;;;;;5116737;28;20254;-79
2023/04/18 03:28:07;;;;;;;12.90;11.38;;;9.00;99.90;;;;;;5116373;28;20222;-80
2023/04/18 03:30:34;;;;;;;13.50;12.20;;;9.00;99.90;;;;;;5116873;28;20230;-77
2023/04/18 03:33:04;;;;;;;15.00;12.45;;;8.90;99.90;;;;;;5115976;28;20219;-79
2023/04/18 03:35:31;;;;;;;14.63;12.13;;;8.80;99.90;;;;;;5097985;28;20306;-78
2023/04/18 03:37:58;;;;;;;12.27;11.13;;;8.80;99.90;;;;;;5085004;28;20228;-77
2023/04/18 03:40:25;;;;;;;12.55;11.25;;;8.90;99.90;;;;;;5075703;28;20243;-77
2023/04/18 03:42:54;;;;;;;14.52;10.88;;;8.80;99.90;;;;;;5075913;28;20552;-77
2023/04/18 03:45:21;;;;;;;13.95;12.50;;;8.90;99.90;;;;;;5075993;28;20598;-77
2023/04/18 03:47:48;;;;;;;13.82;12.45;;;8.90;99.90;;;;;;5074971;28;20677;-78
2023/04/18 03:50:15;;;;;;;13.50;12.10;;;8.80;99.90;;;;;;5076291;28;20228;-80
2023/04/18 03:52:47;;;;;;;12.73;11.43;;;8.80;99.90;;;;;;5075427;28;20248;-79
2023/04/18 03:55:15;;;;;;;15.48;12.75;;;8.80;99.90;;;;;;5075421;28;20573;-80
2023/04/18 03:57:42;;;;;;;14.00;12.60;;;8.70;99.90;;;;;;5075945;28;20220;-79
2023/04/18 04:00:12;;;;;;;13.63;12.25;;;8.70;99.90;;;;;;5074986;28;20259;-80
2023/04/18 04:02:39;;;;;;;13.65;12.25;;;8.70;99.90;;;;;;5075807;28;20290;-79
2023/04/18 04:05:07;;;;;;;13.60;12.20;;;8.60;99.90;;;;;;5075352;28;20246;-80
2023/04/18 04:07:34;;;;;;;12.85;11.38;;;8.50;99.90;;;;;;5076050;28;20224;-80
2023/04/18 04:10:01;;;;;;;13.43;11.75;;;8.50;99.90;;;;;;5075105;28;20243;-80
2023/04/18 04:12:28;;;;;;;13.23;11.20;;;8.50;99.90;;;;;;5075542;28;20224;-80
2023/04/18 04:14:55;;;;;;;12.48;11.00;;;8.60;99.90;;;;;;5075173;28;20307;-80
2023/04/18 04:17:23;;;;;;;13.45;11.93;;;8.60;99.90;;;;;;5075744;28;20224;-81
2023/04/18 04:19:50;;;;;;;12.20;10.43;;;8.60;99.90;;;;;;5075355;28;20224;-78
2023/04/18 04:22:18;;;;;;;15.65;12.23;;;8.60;99.90;;;;;;5075312;28;20251;-78
2023/04/18 04:24:45;;;;;;;13.07;11.77;;;8.60;99.90;;;;;;5075316;28;20239;-81
2023/04/18 04:27:12;;;;;;;13.80;11.88;;;8.60;99.90;;;;;;5075632;28;20232;-81
2023/04/18 04:29:40;;;;;;;14.30;12.65;;;8.60;99.90;;;;;;5076005;28;20303;-81
2023/04/18 04:32:08;;;;;;;11.80;10.70;;;8.60;99.90;;;;;;5074470;28;20311;-78
2023/04/18 04:34:36;;;;;;;13.93;11.80;;;8.60;99.90;;;;;;5075816;28;20267;-77
2023/04/18 04:37:03;;;;;;;14.70;11.98;;;8.60;99.90;;;;;;5113201;28;20237;-77
2023/04/18 04:39:31;;;;;;;13.48;11.68;;;8.70;99.90;;;;;;5115676;28;20238;-78
2023/04/18 04:42:03;;;;;;;14.10;12.50;;;8.70;99.90;;;;;;5114886;28;20227;-78
2023/04/18 04:44:32;;;;;;;14.73;13.25;;;8.70;99.90;;;;;;5115366;28;20618;-78
2023/04/18 04:46:59;;;;;;;14.57;12.93;;;8.70;99.90;;;;;;5114675;28;20234;-79
2023/04/18 04:49:26;;;;;;;15.68;13.48;;;8.60;99.90;;;;;;5115407;28;20230;-80
2023/04/18 04:51:54;;;;;;;14.60;12.75;;;8.50;99.90;;;;;;5115533;28;20319;-76
2023/04/18 04:54:21;;;;;;;17.15;14.43;;;8.50;99.90;;;;;;5114854;28;20310;-76
2023/04/18 04:56:50;;;;;;;15.65;12.75;;;8.50;99.90;;;;;;5121459;28;20219;-77
2023/04/18 04:59:17;;;;;;;15.43;13.82;;;8.50;99.90;;;;;;5130574;28;20230;-80
2023/04/18 05:01:45;;;;;;;15.88;14.25;;;8.50;99.90;;;;;;5134828;28;20558;-79
2023/04/18 05:04:15;;;;;;;14.10;12.55;;;8.50;99.90;;;;;;5134083;28;20261;-80
2023/04/18 05:06:42;;;;;;;15.57;13.35;;;8.50;99.90;;;;;;5134327;28;20230;-80
2023/04/18 05:09:11;;;;;;;15.65;14.13;;;8.50;99.90;;;;;;5132190;28;20238;-78
2023/04/18 05:11:42;;;;;;;16.40;14.25;;;8.50;99.90;;;;;;5134156;28;20331;-80
2023/04/18 05:14:09;;;;;;;13.93;12.52;;;8.50;99.90;;;;;;5135970;28;20248;-80
2023/04/18 05:16:42;;;;;;;15.18;13.57;;;8.50;99.90;;;;;;5134300;28;20345;-78
2023/04/18 05:19:09;;;;;;;17.98;13.93;;;8.50;99.90;;;;;;5114558;28;20249;-79
2023/04/18 05:21:37;;;;;;;15.07;13.43;;;8.50;99.90;;;;;;5105942;28;20294;-76
2023/04/18 05:24:04;;;;;;;16.05;13.80;;;8.50;99.90;;;;;;5113587;28;20566;-80
2023/04/18 05:26:35;;;;;;;17.65;14.32;;;8.50;99.90;;;;;;5114904;28;20560;-79
2023/04/18 05:29:03;;;;;;;17.33;13.52;;;8.50;99.90;;;;;;5114836;28;20219;-80
2023/04/18 05:31:30;;;;;;;16.95;13.05;;;8.60;99.90;;;;;;5113837;28;20218;-80
2023/04/18 05:33:57;;;;;;;16.75;14.10;;;8.60;99.90;;;;;;5115794;28;20655;-80
2023/04/18 05:36:24;;;;;;;15.48;13.23;;;8.60;99.90;;;;;;5115585;28;20227;-80
2023/04/18 05:38:55;;;;;;;16.83;15.07;;;8.60;99.90;;;;;;5115052;28;20701;-81
2023/04/18 05:41:21;;;;;;;14.90;13.50;;;8.60;99.90;;;;;;5075263;28;20337;-81
2023/04/18 05:43:52;;;;;;;14.65;12.77;;;8.70;99.90;;;;;;5098142;28;20215;-80
2023/04/18 05:46:19;;;;;;;15.30;12.35;;;8.70;99.90;;;;;;5113828;28;20318;-80
2023/04/18 05:49:10;;;;;;;14.43;12.38;;;8.80;99.90;;;;;;5114253;28;20248;-80
2023/04/18 05:51:38;;;;;;;15.13;13.55;;;8.80;99.90;;;;;;5113795;28;20227;-78
2023/04/18 05:54:05;;;;;;;20.92;14.45;;;8.70;99.90;;;;;;5113930;28;20726;-79
2023/04/18 05:56:32;;;;;;;17.08;12.75;;;8.70;99.90;;;;;;5113694;28;20226;-78
2023/04/18 05:59:01;;;;;;;14.48;12.57;;;8.70;99.90;;;;;;5114287;28;20306;-81
2023/04/18 06:01:28;;;;;;;17.88;12.35;;;8.80;99.90;;;;;;5113567;28;20283;-80
2023/04/18 06:03:55;;;;;;;20.25;13.25;;;8.80;99.90;;;;;;5114338;28;20226;-80
2023/04/18 06:06:22;;;;;;;16.75;14.30;;;8.80;99.90;;;;;;5113035;28;20234;-80
2023/04/18 06:08:50;;;;;;;19.00;12.75;;;8.80;99.90;;;;;;5114164;28;20226;-77
2023/04/18 06:11:20;;;;;;;14.63;13.20;;;8.80;99.90;;;;;;5113729;28;20234;-78
2023/04/18 06:13:47;;;;;;;13.23;11.93;;;8.90;99.90;;;;;;5113804;28;20575;-80
2023/04/18 06:16:21;;;;;;;16.77;14.50;;;9.00;99.90;;;;;;5113901;28;20283;-78
2023/04/18 06:18:50;;;;;;;14.77;13.25;;;9.00;99.90;;;;;;5113922;28;20221;-78
2023/04/18 06:21:17;;;;;;;15.30;12.45;;;9.10;99.90;;;;;;5113114;28;20606;-77
2023/04/18 06:23:44;;;;;;;13.15;11.90;;;9.10;99.90;;;;;;5113924;28;20299;-77
2023/04/18 06:26:11;;;;;;;13.05;11.70;;;9.30;99.90;;;;;;5114269;28;20287;-81
2023/04/18 06:28:40;;;;;;;14.18;12.18;;;9.30;99.90;;;;;;5113314;28;20284;-79
2023/04/18 06:31:07;;;;;;;15.48;12.95;;;9.40;99.90;;;;;;5098386;28;20226;-81
2023/04/18 06:33:38;;;;;;;14.70;13.20;;;9.40;99.90;;;;;;5102810;28;20229;-78
2023/04/18 06:36:06;;;;;;;13.93;12.60;;;9.40;99.90;;;;;;5114785;28;20288;-76
2023/04/18 06:38:34;;;;;;;14.30;11.82;;;9.50;99.90;;;;;;5114612;28;20298;-77
2023/04/18 06:41:01;;;;;;;12.95;11.73;;;9.50;99.90;;;;;;5115018;28;20232;-77
2023/04/18 06:43:28;;;;;;;14.23;11.45;;;9.50;99.90;;;;;;5114152;28;20624;-77
2023/04/18 06:45:55;;;;;;;12.57;11.43;;;9.60;99.90;;;;;;5113755;28;20233;-77
2023/04/18 06:48:22;;;;;;;13.02;10.93;;;9.70;99.90;;;;;;5114941;28;20635;-80
2023/04/18 06:50:51;;;;;;;12.88;11.18;;;9.80;99.90;;;;;;5113714;28;20222;-77
2023/04/18 06:53:22;;;;;;;16.15;12.10;;;9.80;99.90;;;;;;5114932;28;20562;-80
2023/04/18 06:55:50;;;;;;;13.68;11.95;;;9.80;99.90;;;;;;5114476;28;20241;-77
2023/04/18 06:58:17;;;;;;;14.27;12.48;;;9.80;99.90;;;;;;5113601;28;20247;-80
2023/04/18 07:00:46;;;;;;;12.38;11.15;;;9.90;99.90;;;;;;5113301;28;20597;-80
2023/04/18 07:03:13;;;;;;;11.93;10.70;;;9.90;99.90;;;;;;5113904;28;20231;-79
2023/04/18 07:05:41;;;;;;;14.40;12.75;;;9.90;99.90;;;;;;5113660;28;20558;-77
2023/04/18 07:08:09;;;;;;;18.63;12.68;;;10.00;99.90;;;;;;5118853;28;20222;-80
2023/04/18 07:10:37;;;;;;;13.05;11.43;;;10.10;99.90;;;;;;5119213;28;20226;-77
2023/04/18 07:13:04;;;;;;;15.20;13.30;;;10.10;99.90;;;;;;5125881;28;20287;-77
2023/04/18 07:15:31;;;;;;;13.00;10.52;;;10.20;99.90;;;;;;5129792;28;20242;-78
2023/04/18 07:17:58;;;;;;;13.23;11.93;;;10.30;99.90;;;;;;5128093;28;20222;-79
2023/04/18 07:20:25;;;;;;;15.20;12.52;;;10.40;99.90;;;;;;5132121;28;20238;-76
2023/04/18 07:22:52;;;;;;;12.88;10.77;;;10.40;99.90;;;;;;5129170;28;20675;-78
2023/04/18 07:25:20;;;;;;;13.45;11.45;;;10.50;99.90;;;;;;5131893;28;20242;-80
2023/04/18 07:27:48;;;;;;;13.13;11.65;;;10.60;99.90;;;;;;5131497;28;20230;-81
2023/04/18 07:30:15;;;;;;;15.77;11.50;;;10.60;99.90;;;;;;5127338;28;20245;-80
2023/04/18 07:32:43;;;;;;;11.05;9.90;;;10.70;99.90;;;;;;5127504;28;20218;-76
2023/04/18 07:35:12;;;;;;;13.52;12.02;;;10.70;99.90;;;;;;5116807;28;20227;-79
2023/04/18 07:37:39;;;;;;;17.60;12.20;;;10.80;99.90;;;;;;5114003;28;20227;-77
2023/04/18 07:40:08;;;;;;;14.10;11.85;;;10.90;99.90;;;;;;5117133;28;20229;-79
2023/04/18 07:42:36;;;;;;;15.43;11.00;;;11.00;99.90;;;;;;5117218;28;20247;-79
2023/04/18 07:45:04;;;;;;;16.35;11.70;;;11.10;99.90;;;;;;5115716;28;20222;-80
2023/04/18 07:47:31;;;;;;;12.85;11.55;;;11.00;99.90;;;;;;5116983;28;20595;-80
2023/04/18 07:49:58;;;;;;;11.85;10.35;;;11.10;99.90;;;;;;5116101;28;20284;-77
2023/04/18 07:52:26;;;;;;;16.45;10.75;;;11.10;99.90;;;;;;5116066;28;20224;-77
2023/04/18 07:54:53;;;;;;;13.35;10.23;;;11.20;99.90;;;;;;5115592;28;20234;-77
2023/04/18 07:57:20;;;;;;;12.90;11.60;;;11.30;99.90;;;;;;5116220;28;20688;-77
2023/04/18 07:59:52;;;;;;;13.80;10.77;;;11.30;99.90;;;;;;5115802;28;20223;-80
2023/04/18 08:02:19;;;;;;;12.32;11.13;;;11.30;99.90;;;;;;5115796;28;20237;-80
2023/04/18 08:04:48;;;;;;;14.07;11.63;;;11.50;99.90;;;;;;5115416;28;20230;-77
2023/04/18 08:07:17;;;;;;;10.52;9.50;;;11.50;99.90;;;;;;5116217;28;20629;-78
2023/04/18 08:09:44;;;;;;;11.05;9.95;;;11.60;99.90;;;;;;5115708;28;20254;-78
2023/04/18 08:12:11;;;;;;;12.68;11.48;;;11.70;99.90;;;;;;5115197;28;20305;-77
2023/04/18 08:14:38;;;;;;;11.90;10.70;;;11.70;99.90;;;;;;5116034;28;20602;-78
2023/04/18 08:17:07;;;;;;;12.95;10.35;;;11.70;99.90;;;;;;5115501;28;20227;-81
2023/04/18 08:19:34;;;;;;;13.90;12.40;;;11.70;99.90;;;;;;5115652;28;20304;-78
2023/04/18 08:22:09;;;;;;;14.65;12.88;;;11.80;99.90;;;;;;5114675;28;20222;-77
2023/04/18 08:24:36;;;;;;;12.85;10.85;;;11.80;99.90;;;;;;5114684;28;20554;-78
2023/04/18 08:27:04;;;;;;;13.35;12.05;;;11.80;99.90;;;;;;5114288;28;20311;-77
2023/04/18 08:29:31;;;;;;;15.10;11.95;;;11.70;99.90;;;;;;5115925;28;20563;-81
2023/04/18 08:31:58;;;;;;;11.68;10.55;;;11.80;99.90;;;;;;5115911;28;20513;-80
2023/04/18 08:34:28;;;;;;;11.32;10.13;;;11.80;99.90;;;;;;5116062;28;20226;-80
2023/04/18 08:36:56;;;;;;;12.10;10.80;;;11.80;99.90;;;;;;5114402;28;20235;-80
2023/04/18 08:39:23;;;;;;;12.85;9.82;;;11.80;99.90;;;;;;5115061;28;20234;-78
2023/04/18 08:41:57;;;;;;;12.13;10.90;;;11.80;99.90;;;;;;5116038;28;20717;-80
2023/04/18 08:44:26;;;;;;;14.52;10.52;;;11.90;99.90;;;;;;5115791;28;20283;-80
2023/04/18 08:46:53;;;;;;;12.50;11.35;;;11.90;99.90;;;;;;5116035;28;20253;-78
2023/04/18 08:49:21;;;;;;;12.05;10.80;;;11.80;99.90;;;;;;5114306;28;20369;-77
2023/04/18 08:51:52;;;;;;;13.27;11.82;;;11.80;99.90;;;;;;5116564;28;20223;-80
2023/04/18 08:54:24;;;;;;;12.75;11.45;;;11.80;99.90;;;;;;5093624;28;20231;-80
2023/04/18 08:57:04;;;;;;;14.02;11.77;;;11.90;99.90;;;;;;5110816;28;20224;-80
2023/04/18 08:59:35;;;;;;;13.25;11.77;;;11.90;99.90;;;;;;5116021;28;20234;-80
2023/04/18 09:02:04;;;;;;;12.57;9.90;;;11.90;99.90;;;;;;5115861;28;20314;-81
2023/04/18 09:04:36;;;;;;;13.40;12.00;;;12.00;99.90;;;;;;5115248;28;20559;-81
2023/04/18 09:07:06;;;;;;;12.77;11.63;;;12.10;99.90;;;;;;5115824;28;20229;-79
2023/04/18 09:09:41;;;;;;;14.18;12.38;;;12.10;99.90;;;;;;5114893;28;20226;-80
2023/04/18 09:12:10;;;;;;;12.57;11.30;;;12.10;99.90;;;;;;5115054;28;20226;-80
2023/04/18 09:14:44;;;;;;;14.57;11.38;;;12.10;99.90;;;;;;5114039;28;20226;-78
2023/04/18 09:17:15;;;;;;;12.52;10.02;;;12.20;99.90;;;;;;5114968;28;20597;-78
2023/04/18 09:19:53;;;;;;;13.10;11.70;;;12.30;99.90;;;;;;5115194;28;20628;-78
2023/04/18 09:22:46;;;;;;;12.07;10.88;;;12.30;99.90;;;;;;5113953;28;20223;-78
2023/04/18 09:25:26;;;;;;;12.45;11.13;;;12.30;99.90;;;;;;5115841;28;20229;-78
2023/04/18 09:27:53;;;;;;;12.60;11.25;;;12.40;99.90;;;;;;5115064;28;20233;-78
2023/04/18 09:30:37;;;;;;;13.20;10.80;;;12.50;99.90;;;;;;5113843;28;20279;-78
2023/04/18 09:33:06;;;;;;;12.50;11.20;;;12.50;99.90;;;;;;5099507;28;20594;-80
2023/04/18 09:35:34;;;;;;;12.80;11.35;;;12.50;99.90;;;;;;5114113;28;20230;-78
2023/04/18 09:38:02;;;;;;;11.05;10.10;;;12.70;99.90;;;;;;5113870;28;20257;-77
2023/04/18 09:40:30;;;;;;;11.88;10.40;;;12.80;99.90;;;;;;5114576;28;20683;-77
2023/04/18 09:42:59;;;;;;;11.38;10.27;;;12.80;99.90;;;;;;5092932;28;20276;-78
2023/04/18 09:45:26;;;;;;;13.07;10.90;;;12.80;99.90;;;;;;5107282;28;20226;-81
2023/04/18 09:47:56;;;;;;;11.25;9.85;;;12.90;99.90;;;;;;5113440;28;20244;-78
2023/04/18 09:50:24;;;;;;;11.60;10.48;;;13.00;99.90;;;;;;5114415;28;20243;-78
2023/04/18 09:52:51;;;;;;;12.77;11.57;;;13.10;99.90;;;;;;5115137;28;20215;-77
2023/04/18 09:55:20;;;;;;;12.13;10.88;;;13.10;99.90;;;;;;5118217;28;20499;-80
2023/04/18 09:57:49;;;;;;;12.10;10.88;;;13.10;99.90;;;;;;5114345;28;20226;-78
2023/04/18 10:00:22;;;;;;;11.40;10.13;;;13.20;99.90;;;;;;5113673;28;20226;-80
2023/04/18 10:02:57;;;;;;;11.38;10.20;;;13.30;99.90;;;;;;5113487;28;20487;-80
2023/04/18 10:05:28;;;;;;;9.63;8.68;;;13.30;99.90;;;;;;5114670;28;20226;-81
2023/04/18 10:07:55;;;;;;;12.02;10.73;;;13.30;99.90;;;;;;5113771;28;20596;-79
2023/04/18 10:10:26;;;;;;;13.43;11.25;;;13.40;99.90;;;;;;5113974;28;20226;-78
2023/04/18 10:12:56;;;;;;;12.45;11.27;;;13.40;99.90;;;;;;5113119;28;20223;-78
2023/04/18 10:15:25;;;;;;;12.70;11.50;;;13.50;99.90;;;;;;5112825;28;20305;-78
2023/04/18 10:17:54;;;;;;;10.85;9.85;;;13.40;99.90;;;;;;5103052;28;20218;-79
2023/04/18 10:20:25;;;;;;;11.73;10.63;;;13.60;99.90;;;;;;5096939;28;20222;-79
2023/04/18 10:22:53;;;;;;;12.77;11.47;;;13.60;99.90;;;;;;5113732;28;20231;-81
2023/04/18 10:25:54;;;;;;;13.73;10.97;;;13.60;99.90;;;;;;5113630;28;20480;-80
2023/04/18 10:28:25;;;;;;;11.83;10.60;;;13.70;99.90;;;;;;5112525;28;20456;-76
2023/04/18 10:31:02;;;;;;;11.30;9.80;;;13.70;99.90;;;;;;5114076;28;21051;-77
2023/04/18 10:33:32;;;;;;;12.20;11.00;;;13.80;99.90;;;;;;5084952;28;20855;-77
2023/04/18 10:36:14;;;;;;;11.82;10.73;;;13.80;99.90;;;;;;5113849;28;20975;-76
2023/04/18 10:38:46;;;;;;;15.33;10.93;;;13.80;99.90;;;;;;5115479;28;20334;-79
2023/04/18 10:41:28;;;;;;;10.77;9.70;;;13.90;99.90;;;;;;5113254;28;20464;-78
2023/04/18 10:44:17;;;;;;;14.10;12.23;;;14.00;99.90;;;;;;5112702;28;20970;-77
2023/04/18 10:47:33;;;;;;;11.73;10.63;;;14.00;99.90;;;;;;5112980;28;20468;-77
2023/04/18 10:50:10;;;;;;;11.30;10.10;;;14.10;99.90;;;;;;5113054;28;20540;-80
2023/04/18 10:52:48;;;;;;;10.13;9.23;;;14.10;99.90;;;;;;5101247;28;20222;-80
2023/04/18 10:55:22;;;;;;;10.97;9.87;;;14.10;99.90;;;;;;5112755;28;20472;-81
2023/04/18 10:57:56;;;;;;;11.53;9.87;;;14.10;99.90;;;;;;5113597;28;20536;-80
2023/04/18 11:00:24;;;;;;;11.23;10.23;;;14.10;99.90;;;;;;5112784;28;20564;-79
2023/04/18 11:02:56;;;;;;;10.17;9.10;;;14.20;99.90;;;;;;5112816;28;20884;-79
2023/04/18 11:05:25;;;;;;;10.07;8.37;;;14.20;99.90;;;;;;5085374;28;21251;-79
2023/04/18 11:07:53;;;;;;;11.40;10.20;;;14.20;99.90;;;;;;5114244;28;20543;-80
2023/04/18 11:10:25;;;;;;;9.90;9.00;;;14.20;99.90;;;;;;5116930;28;20505;-77
2023/04/18 11:12:55;;;;;;;10.63;9.63;;;14.30;99.90;;;;;;5116847;28;20456;-76
2023/04/18 11:15:24;;;;;;;11.63;10.47;;;14.30;99.90;;;;;;5110916;28;20484;-79
2023/04/18 11:18:01;;;;;;;13.17;10.67;;;14.40;99.90;;;;;;5116140;28;20464;-79
2023/04/18 11:20:29;;;;;;;12.47;11.17;;;14.40;99.90;;;;;;5093986;28;20517;-78
2023/04/18 11:22:58;;;;;;;11.40;10.30;;;14.50;99.90;;;;;;5109024;28;20513;-79
2023/04/18 11:25:31;;;;;;;11.20;9.97;;;14.50;99.90;;;;;;5118563;28;20468;-79
2023/04/18 11:28:03;;;;;;;11.57;10.33;;;14.50;99.90;;;;;;5095552;28;20846;-80
2023/04/18 11:30:37;;;;;;;12.43;10.23;;;14.50;99.90;;;;;;5112428;28;20464;-80
2023/04/18 11:33:08;;;;;;;12.73;10.90;;;14.50;99.90;;;;;;5116595;28;20471;-78
2023/04/18 11:35:38;;;;;;;11.63;10.50;;;14.50;99.90;;;;;;5116190;28;20775;-77
2023/04/18 11:38:08;;;;;;;12.47;10.70;;;14.60;99.90;;;;;;5117190;28;20554;-79
2023/04/18 11:40:36;;;;;;;12.37;11.20;;;14.60;99.90;;;;;;5117213;28;20478;-80
2023/04/18 11:43:07;;;;;;;12.93;10.90;;;14.60;99.90;;;;;;5116737;28;20484;-80
2023/04/18 11:45:34;;;;;;;12.63;10.20;;;14.70;99.90;;;;;;5117250;28;20479;-77
2023/04/18 11:48:03;;;;;;;9.00;8.23;;;14.70;99.90;;;;;;5116881;28;20464;-80
2023/04/18 11:50:36;;;;;;;12.53;11.30;;;14.70;99.90;;;;;;5117533;28;20465;-80
2023/04/18 11:53:03;;;;;;;11.27;10.00;;;14.70;99.90;;;;;;5116637;28;20777;-80
2023/04/18 11:55:32;;;;;;;12.10;9.93;;;14.60;99.90;;;;;;5117699;28;20484;-80
2023/04/18 11:58:00;;;;;;;11.17;10.07;;;14.70;99.90;;;;;;5116587;28;20548;-77
2023/04/18 12:00:37;;;;;;;12.33;9.83;;;14.80;99.90;;;;;;5108623;28;20957;-77
2023/04/18 12:03:06;;;;;;;10.27;8.67;;;14.80;99.90;;;;;;5116779;28;20487;-78
2023/04/18 12:05:38;;;;;;;11.33;9.00;;;14.80;99.90;;;;;;5117565;28;20468;-77
2023/04/18 12:08:10;;;;;;;9.30;8.40;;;14.90;99.90;;;;;;5116377;28;20475;-80
2023/04/18 12:10:38;;;;;;;14.83;12.07;;;14.90;99.90;;;;;;5116945;28;20468;-80
2023/04/18 12:13:07;;;;;;;11.30;10.30;;;14.90;99.90;;;;;;5116619;28;20471;-80
2023/04/18 12:15:39;;;;;;;12.40;11.20;;;15.00;99.90;;;;;;5117197;28;20473;-80
2023/04/18 12:18:08;;;;;;;12.90;11.70;;;15.00;99.90;;;;;;5115941;28;20476;-79
2023/04/18 12:20:39;;;;;;;11.77;10.57;;;15.00;99.90;;;;;;5115618;28;20472;-80
2023/04/18 12:23:07;;;;;;;12.47;11.13;;;15.10;99.90;;;;;;5085771;28;21028;-79
2023/04/18 12:25:35;;;;;;;11.43;10.37;;;15.10;99.90;;;;;;5110755;28;20480;-79
2023/04/18 12:28:13;;;;;;;13.27;10.83;;;15.20;99.90;;;;;;5115624;28;20958;-79
2023/04/18 12:30:42;;;;;;;14.80;11.70;;;15.20;99.90;;;;;;5117193;28;20803;-79
2023/04/18 12:33:09;;;;;;;13.70;12.10;;;15.20;99.90;;;;;;5116219;28;21029;-77
2023/04/18 12:35:36;;;;;;;14.80;11.43;;;15.20;99.90;;;;;;5116266;28;20538;-77
2023/04/18 12:38:05;;;;;;;15.83;13.30;;;15.20;99.90;;;;;;5116342;28;20498;-77
2023/04/18 12:40:32;;;;;;;14.63;13.20;;;15.10;99.90;;;;;;5116829;28;20471;-77
2023/04/18 12:42:59;;;;;;;16.00;11.80;;;15.20;99.90;;;;;;5114831;28;20483;-80